createdAt,value
2023-04-18T00:01:23.885Z,91926.09
2023-04-18T00:03:51.018Z,91927.56
2023-04-18T00:06:17.875Z,91931.59
2023-04-18T00:08:44.391Z,91926.09
2023-04-18T00:11:10.895Z,91924.63
2023-04-18T00:13:39.371Z,91926.09
2023-04-18T00:16:07.752Z,91926.09
2023-04-18T00:18:34.543Z,91927.56
2023-04-18T00:21:01.997Z,91919.13
2023-04-18T00:23:30.241Z,91919.13
2023-04-18T00:25:56.744Z,91917.66
2023-04-18T00:28:23.258Z,91919.13
2023-04-18T00:30:49.862Z,91927.56
2023-04-18T00:33:16.897Z,91921.38
2023-04-18T00:35:43.430Z,91918.97
2023-04-18T00:38:10.202Z,91921.69
2023-04-18T00:40:37.819Z,91917.66
2023-04-18T00:43:04.635Z,91925.38
2023-04-18T00:45:31.285Z,91920.63
2023-04-18T00:47:57.874Z,91916.72
2023-04-18T00:50:24.790Z,91921.69
2023-04-18T00:52:52.122Z,91915.47
2023-04-18T00:55:18.909Z,91916.22
2023-04-18T00:57:45.960Z,91918.00
2023-04-18T01:00:13.148Z,91916.00
2023-04-18T01:02:40.554Z,91912.53
2023-04-18T01:05:08.051Z,91913.25
2023-04-18T01:07:37.336Z,91914.72
2023-04-18T01:10:04.394Z,91918.75
2023-04-18T01:12:31.482Z,91917.25
2023-04-18T01:14:58.803Z,91915.25
2023-04-18T01:17:25.370Z,91911.78
2023-04-18T01:19:51.914Z,91906.28
2023-04-18T01:22:19.956Z,91909.03
2023-04-18T01:24:46.350Z,91913.06
2023-04-18T01:27:15.779Z,91906.28
2023-04-18T01:29:42.289Z,91902.28
2023-04-18T01:32:08.837Z,91907.78
2023-04-18T01:34:35.347Z,91902.78
2023-04-18T01:37:01.865Z,91900.59
2023-04-18T01:39:28.931Z,91899.34
2023-04-18T01:41:55.427Z,91898.59
2023-04-18T01:44:21.927Z,91899.34
2023-04-18T01:46:48.477Z,91900.78
2023-04-18T01:49:16.038Z,91893.66
2023-04-18T01:51:43.341Z,91897.84
2023-04-18T01:54:09.810Z,91894.91
2023-04-18T01:56:36.462Z,91901.13
2023-04-18T01:59:03.070Z,91898.59
2023-04-18T02:01:29.630Z,91894.56
2023-04-18T02:03:57.620Z,91899.34
2023-04-18T02:06:24.202Z,91896.78
2023-04-18T02:08:50.711Z,91899.53
2023-04-18T02:11:17.206Z,91896.78
2023-04-18T02:13:43.699Z,91897.50
2023-04-18T02:16:13.825Z,91900.06
2023-04-18T02:18:43.272Z,91891.31
2023-04-18T02:21:11.227Z,91888.56
2023-04-18T02:23:37.761Z,91891.31
2023-04-18T02:26:04.186Z,91904.28
2023-04-18T02:28:30.857Z,91902.28
2023-04-18T02:30:59.380Z,91900.78
2023-04-18T02:33:25.934Z,91897.84
2023-04-18T02:35:52.441Z,91897.84
2023-04-18T02:38:18.981Z,91905.53
2023-04-18T02:40:45.724Z,91905.88
2023-04-18T02:43:12.259Z,91900.41
2023-04-18T02:45:38.834Z,91911.38
2023-04-18T02:48:05.400Z,91908.63
2023-04-18T02:50:32.115Z,91902.97
2023-04-18T02:52:58.610Z,91913.19
2023-04-18T02:55:26.884Z,91906.97
2023-04-18T02:57:53.483Z,91908.44
2023-04-18T03:00:20.036Z,91904.22
2023-04-18T03:02:46.648Z,91909.50
2023-04-18T03:05:13.519Z,91906.75
2023-04-18T03:07:40.048Z,91906.75
2023-04-18T03:10:07.102Z,91904.03
2023-04-18T03:12:33.685Z,91904.75
2023-04-18T03:15:00.193Z,91913.53
2023-04-18T03:17:26.693Z,91904.03
2023-04-18T03:19:53.208Z,91905.31
2023-04-18T03:22:20.023Z,91904.56
2023-04-18T03:24:46.618Z,91906.56
2023-04-18T03:27:13.546Z,91908.03
2023-04-18T03:29:40.233Z,91907.31
2023-04-18T03:32:06.832Z,91905.09
2023-04-18T03:34:33.347Z,91907.09
2023-04-18T03:36:59.901Z,91910.59
2023-04-18T03:39:26.410Z,91914.63
2023-04-18T03:41:52.944Z,91900.34
2023-04-18T03:44:19.455Z,91899.63
2023-04-18T03:46:46.356Z,91907.84
2023-04-18T03:49:12.886Z,91897.94
2023-04-18T03:51:44.256Z,91902.34
2023-04-18T03:54:10.762Z,91909.13
2023-04-18T03:56:37.473Z,91904.16
2023-04-18T03:59:03.960Z,91906.91
2023-04-18T04:01:30.576Z,91906.38
2023-04-18T04:03:57.234Z,91904.69
2023-04-18T04:06:24.279Z,91915.66
2023-04-18T04:08:50.777Z,91910.94
2023-04-18T04:11:17.590Z,91914.41
2023-04-18T04:13:44.127Z,91917.16
2023-04-18T04:16:10.791Z,91918.63
2023-04-18T04:18:37.378Z,91917.16
2023-04-18T04:21:05.001Z,91912.72
2023-04-18T04:23:31.503Z,91917.69
2023-04-18T04:25:58.784Z,91922.66
2023-04-18T04:28:26.337Z,91925.19
2023-04-18T04:30:53.843Z,91922.44
2023-04-18T04:33:21.207Z,91925.19
2023-04-18T04:35:47.962Z,91927.72
2023-04-18T04:38:15.378Z,91922.44
2023-04-18T04:40:43.017Z,91924.97
2023-04-18T04:43:12.620Z,91928.81
2023-04-18T04:45:42.075Z,91938.69
2023-04-18T04:48:09.684Z,91931.94
2023-04-18T04:50:38.166Z,91926.44
2023-04-18T04:53:06.354Z,91927.72
2023-04-18T04:55:33.363Z,91936.16
2023-04-18T04:58:00.197Z,91934.69
2023-04-18T05:00:26.834Z,91945.66
2023-04-18T05:02:55.829Z,91945.28
2023-04-18T05:05:22.425Z,91954.09
2023-04-18T05:07:48.934Z,91939.44
2023-04-18T05:10:15.536Z,91950.44
2023-04-18T05:12:42.069Z,91956.44
2023-04-18T05:15:08.852Z,91959.91
2023-04-18T05:17:35.474Z,91954.22
2023-04-18T05:20:02.218Z,91953.69
2023-04-18T05:22:28.765Z,91956.28
2023-04-18T05:24:55.328Z,91954.50
2023-04-18T05:27:21.976Z,91954.16
2023-04-18T05:29:50.250Z,91958.91
2023-04-18T05:32:16.867Z,91957.44
2023-04-18T05:34:43.425Z,91966.59
2023-04-18T05:37:09.990Z,91959.13
2023-04-18T05:39:36.553Z,91957.84
2023-04-18T05:42:03.360Z,91953.81
2023-04-18T05:44:30.230Z,91952.38
2023-04-18T05:46:56.773Z,91953.81
2023-04-18T05:49:23.681Z,91956.38
2023-04-18T05:51:50.749Z,91960.59
2023-04-18T05:54:17.411Z,91954.91
2023-04-18T05:56:44.210Z,91963.34
2023-04-18T05:59:10.894Z,91960.94
2023-04-18T06:01:37.358Z,91958.91
2023-04-18T06:04:04.191Z,91961.84
2023-04-18T06:06:31.501Z,91958.19
2023-04-18T06:08:58.071Z,91965.16
2023-04-18T06:11:24.593Z,91965.69
2023-04-18T06:13:51.262Z,91960.00
2023-04-18T06:16:18.706Z,91975.38
2023-04-18T06:18:45.294Z,91976.66
2023-04-18T06:21:13.159Z,91975.38
2023-04-18T06:23:39.669Z,91980.16
2023-04-18T06:26:07.446Z,91974.84
2023-04-18T06:28:33.942Z,91975.38
2023-04-18T06:31:00.584Z,91975.59
2023-04-18T06:33:27.115Z,91983.81
2023-04-18T06:35:53.807Z,91980.53
2023-04-18T06:38:20.476Z,91981.81
2023-04-18T06:40:46.973Z,91981.06
2023-04-18T06:43:13.527Z,91982.75
2023-04-18T06:45:40.334Z,91971.25
2023-04-18T06:48:09.016Z,91971.75
2023-04-18T06:50:35.821Z,91972.50
2023-04-18T06:53:02.319Z,91975.44
2023-04-18T06:55:28.835Z,91970.72
2023-04-18T06:57:55.414Z,91966.69
2023-04-18T07:00:22.249Z,91967.41
2023-04-18T07:02:48.947Z,91959.72
2023-04-18T07:05:15.564Z,91958.66
2023-04-18T07:07:42.037Z,91960.31
2023-04-18T07:10:09.850Z,91955.03
2023-04-18T07:12:36.475Z,91955.03
2023-04-18T07:15:03.943Z,91949.72
2023-04-18T07:17:30.645Z,91945.19
2023-04-18T07:19:58.792Z,91947.41
2023-04-18T07:22:25.477Z,91943.97
2023-04-18T07:24:51.966Z,91946.91
2023-04-18T07:27:18.481Z,91946.78
2023-04-18T07:29:45.009Z,91929.75
2023-04-18T07:32:11.557Z,91948.31
2023-04-18T07:34:40.265Z,91947.41
2023-04-18T07:37:07.067Z,91950.56
2023-04-18T07:39:35.995Z,91939.97
2023-04-18T07:42:04.221Z,91946.03
2023-04-18T07:44:30.751Z,91948.78
2023-04-18T07:46:57.431Z,91939.28
2023-04-18T07:49:23.962Z,91942.75
2023-04-18T07:51:50.463Z,91940.75
2023-04-18T07:54:17.109Z,91944.44
2023-04-18T07:56:43.640Z,91935.44
2023-04-18T07:59:10.182Z,91938.06
2023-04-18T08:01:36.654Z,91938.97
2023-04-18T08:04:03.503Z,91942.81
2023-04-18T08:06:30.127Z,91941.53
2023-04-18T08:08:58.954Z,91942.25
2023-04-18T08:11:25.494Z,91937.50
2023-04-18T08:13:52.005Z,91943.00
2023-04-18T08:16:18.552Z,91944.47
2023-04-18T08:18:45.112Z,91937.91
2023-04-18T08:21:11.647Z,91935.69
2023-04-18T08:23:38.487Z,91936.41
2023-04-18T08:26:05.252Z,91938.44
2023-04-18T08:28:31.788Z,91931.66
2023-04-18T08:30:58.400Z,91939.34
2023-04-18T08:33:24.997Z,91940.09
2023-04-18T08:35:51.852Z,91934.06
2023-04-18T08:38:19.139Z,91931.31
2023-04-18T08:40:46.245Z,91931.00
2023-04-18T08:43:15.010Z,91927.69
2023-04-18T08:45:42.884Z,91926.59
2023-04-18T08:48:16.780Z,91932.31
2023-04-18T08:50:44.702Z,91927.00
2023-04-18T08:53:11.692Z,91932.69
2023-04-18T08:55:38.324Z,91934.19
2023-04-18T08:58:07.921Z,91930.13
2023-04-18T09:00:35.241Z,91934.34
2023-04-18T09:03:03.022Z,91922.28
2023-04-18T09:05:29.724Z,91932.19
2023-04-18T09:07:56.778Z,91935.13
2023-04-18T09:10:28.855Z,91931.09
2023-04-18T09:12:57.534Z,91919.91
2023-04-18T09:15:27.290Z,91920.09
2023-04-18T09:17:58.387Z,91924.13
2023-04-18T09:20:34.685Z,91918.63
2023-04-18T09:23:03.960Z,91914.94
2023-04-18T09:25:35.007Z,91913.13
2023-04-18T09:28:03.128Z,91911.66
2023-04-18T09:30:34.343Z,91911.47
2023-04-18T09:33:01.717Z,91910.94
2023-04-18T09:35:28.554Z,91907.44
2023-04-18T09:37:55.330Z,91908.19
2023-04-18T09:40:23.685Z,91909.09
2023-04-18T09:42:54.475Z,91905.28
2023-04-18T09:45:21.651Z,91902.53
2023-04-18T09:47:48.273Z,91905.44
2023-04-18T09:50:16.832Z,91901.44
2023-04-18T09:52:44.664Z,91903.44
2023-04-18T09:55:14.312Z,91895.94
2023-04-18T09:57:46.383Z,91895.00
2023-04-18T10:00:20.238Z,91895.75
2023-04-18T10:03:05.152Z,91897.41
2023-04-18T10:05:34.404Z,91898.88
2023-04-18T10:08:01.244Z,91893.38
2023-04-18T10:10:28.049Z,91887.88
2023-04-18T10:12:57.018Z,91894.84
2023-04-18T10:15:28.660Z,91888.63
2023-04-18T10:20:29.417Z,91875.78
2023-04-18T10:22:57.702Z,91871.03
2023-04-18T10:25:39.236Z,91883.47
2023-04-18T10:28:09.535Z,91873.78
2023-04-18T10:30:41.852Z,91875.44
2023-04-18T10:33:30.391Z,91866.63
2023-04-18T10:36:01.746Z,91868.09
2023-04-18T10:38:28.684Z,91870.31
2023-04-18T10:41:29.954Z,91871.22
2023-04-18T10:44:09.206Z,91863.16
2023-04-18T10:46:40.053Z,91858.94
2023-04-18T10:49:18.669Z,91855.09
2023-04-18T10:51:46.908Z,91857.84
2023-04-18T10:54:19.977Z,91851.09
2023-04-18T10:56:56.640Z,91848.16
2023-04-18T10:59:25.116Z,91850.91
2023-04-18T11:02:24.348Z,91848.34
2023-04-18T11:04:52.603Z,91841.34
2023-04-18T11:07:19.709Z,91842.84
2023-04-18T11:09:56.515Z,91840.09
2023-04-18T11:12:23.381Z,91831.84
2023-04-18T11:14:52.014Z,91827.78
2023-04-18T11:17:24.209Z,91831.47
2023-04-18T11:19:51.780Z,91833.47
2023-04-18T11:22:19.068Z,91826.69
2023-04-18T11:24:45.691Z,91828.16
2023-04-18T11:27:12.807Z,91834.41
2023-04-18T11:29:39.359Z,91822.84
2023-04-18T11:32:07.879Z,91817.53
2023-04-18T11:34:35.894Z,91823.75
2023-04-18T11:37:06.010Z,91819.00
2023-04-18T11:39:42.521Z,91814.25
2023-04-18T11:42:09.493Z,91814.97
2023-04-18T11:44:39.659Z,91817.72
2023-04-18T11:47:29.070Z,91815.16
2023-04-18T11:50:00.764Z,91807.63
2023-04-18T11:52:28.678Z,91813.88
2023-04-18T11:54:55.155Z,91815.34
2023-04-18T11:57:24.210Z,91811.31
2023-04-18T11:59:52.606Z,91810.56
2023-04-18T12:02:20.910Z,91812.59
2023-04-18T12:04:56.910Z,91808.72
2023-04-18T12:07:40.017Z,91801.75
2023-04-18T12:10:24.358Z,91803.22
2023-04-18T12:12:52.118Z,91807.47
2023-04-18T12:15:19.478Z,91806.16
2023-04-18T12:17:54.381Z,91803.97
2023-04-18T12:20:24.788Z,91797.91
2023-04-18T12:22:52.296Z,91798.66
2023-04-18T12:25:26.997Z,91802.88
2023-04-18T12:28:00.389Z,91802.34
2023-04-18T12:30:29.431Z,91797.03
2023-04-18T12:33:01.382Z,91792.22
2023-04-18T12:35:29.061Z,91792.22
2023-04-18T12:37:57.481Z,91788.22
2023-04-18T12:40:26.256Z,91790.41
2023-04-18T12:42:54.583Z,91791.84
2023-04-18T12:45:22.559Z,91793.34
2023-04-18T12:47:51.131Z,91787.84
2023-04-18T12:50:20.353Z,91788.03
2023-04-18T12:52:46.996Z,91788.19
2023-04-18T12:55:14.020Z,91780.13
2023-04-18T12:57:42.334Z,91786.38
2023-04-18T13:00:13.595Z,91787.09
2023-04-18T13:02:45.222Z,91777.56
2023-04-18T13:05:14.355Z,91767.28
2023-04-18T13:07:42.407Z,91779.38
2023-04-18T13:10:14.556Z,91772.41
2023-04-18T13:12:41.615Z,91775.72
2023-04-18T13:15:09.493Z,91772.22
2023-04-18T13:17:38.628Z,91772.56
2023-04-18T13:20:07.263Z,91771.31
2023-04-18T13:22:34.148Z,91762.31
2023-04-18T13:25:00.704Z,91763.59
2023-04-18T13:27:27.306Z,91762.13
2023-04-18T13:29:53.828Z,91763.59
2023-04-18T13:32:20.479Z,91751.84
2023-04-18T13:34:48.344Z,91756.63
2023-04-18T13:37:15.190Z,91756.63
2023-04-18T13:39:41.882Z,91757.16
2023-04-18T13:42:09.021Z,91762.84
2023-04-18T13:44:36.867Z,91764.31
2023-04-18T13:47:05.073Z,91761.56
2023-04-18T13:49:32.713Z,91754.78
2023-04-18T13:51:59.587Z,91754.78
2023-04-18T13:54:30.626Z,91750.00
2023-04-18T13:56:58.970Z,91750.72
2023-04-18T13:59:26.551Z,91750.72
2023-04-18T14:01:54.563Z,91750.00
2023-04-18T14:04:22.515Z,91759.91
2023-04-18T14:06:49.965Z,91760.06
2023-04-18T14:09:17.106Z,91759.50
2023-04-18T14:11:44.208Z,91746.31
2023-04-18T14:14:10.715Z,91753.25
2023-04-18T14:16:37.299Z,91756.00
2023-04-18T14:19:03.959Z,91753.97
2023-04-18T14:21:31.224Z,91759.09
2023-04-18T14:23:57.929Z,91759.28
2023-04-18T14:26:24.579Z,91755.41
2023-04-18T14:28:51.267Z,91757.03
2023-04-18T14:31:17.949Z,91762.00
2023-04-18T14:33:44.816Z,91757.59
2023-04-18T14:36:11.474Z,91749.91
2023-04-18T14:38:38.036Z,91748.97
2023-04-18T14:41:05.644Z,91756.34
2023-04-18T14:43:32.397Z,91758.38
2023-04-18T14:45:59.740Z,91762.97
2023-04-18T14:48:27.269Z,91758.19
2023-04-18T14:50:58.314Z,91763.50
2023-04-18T14:53:25.325Z,91754.88
2023-04-18T14:55:52.509Z,91755.44
2023-04-18T14:58:19.315Z,91760.25
2023-04-18T15:00:45.856Z,91758.75
2023-04-18T15:03:12.574Z,91755.13
2023-04-18T15:05:42.866Z,91760.44
2023-04-18T15:08:11.006Z,91765.94
2023-04-18T15:10:38.437Z,91763.19
2023-04-18T15:13:04.960Z,91766.84
2023-04-18T15:15:34.901Z,91762.06
2023-04-18T15:18:02.814Z,91755.13
2023-04-18T15:20:29.697Z,91765.00
2023-04-18T15:22:56.893Z,91765.00
2023-04-18T15:25:23.732Z,91759.50
2023-04-18T15:27:50.253Z,91765.75
2023-04-18T15:30:16.750Z,91759.50
2023-04-18T15:32:44.130Z,91765.75
2023-04-18T15:35:12.093Z,91765.00
2023-04-18T15:37:38.536Z,91767.94
2023-04-18T15:40:07.031Z,91765.19
2023-04-18T15:42:33.643Z,91765.19
2023-04-18T15:45:00.122Z,91774.91
2023-04-18T15:47:27.146Z,91763.91
2023-04-18T15:49:53.745Z,91770.88
2023-04-18T15:52:20.314Z,91774.91
2023-04-18T15:54:46.807Z,91773.47
2023-04-18T15:57:13.302Z,91780.97
2023-04-18T15:59:39.823Z,91778.97
2023-04-18T16:02:09.136Z,91783.00
2023-04-18T16:04:35.724Z,91789.81
2023-04-18T16:07:02.967Z,91784.13
2023-04-18T16:09:29.940Z,91782.66
2023-04-18T16:11:57.438Z,91790.75
2023-04-18T16:14:23.954Z,91792.00
2023-04-18T16:16:50.505Z,91797.53
2023-04-18T16:19:17.170Z,91794.06
2023-04-18T16:21:43.690Z,91790.56
2023-04-18T16:24:10.391Z,91797.34
2023-04-18T16:26:36.876Z,91795.88
2023-04-18T16:29:03.418Z,91797.69
2023-04-18T16:31:29.923Z,91789.97
2023-04-18T16:33:56.513Z,91799.72
2023-04-18T16:36:23.114Z,91799.53
2023-04-18T16:38:49.608Z,91800.81
2023-04-18T16:41:16.159Z,91815.31
2023-04-18T16:43:42.638Z,91811.66
2023-04-18T16:46:09.250Z,91806.13
2023-04-18T16:48:37.917Z,91803.22
2023-04-18T16:51:05.692Z,91810.00
2023-04-18T16:53:32.290Z,91815.31
2023-04-18T16:55:59.555Z,91809.81
2023-04-18T16:58:26.090Z,91811.69
2023-04-18T17:00:52.879Z,91824.88
2023-04-18T17:03:19.469Z,91819.94
2023-04-18T17:05:46.496Z,91815.00
2023-04-18T17:08:12.987Z,91817.56
2023-04-18T17:10:39.514Z,91815.88
2023-04-18T17:13:06.072Z,91818.63
2023-04-18T17:15:32.613Z,91820.13
2023-04-18T17:18:01.091Z,91822.69
2023-04-18T17:20:28.313Z,91830.94
2023-04-18T17:22:55.406Z,91830.75
2023-04-18T17:25:21.930Z,91832.97
2023-04-18T17:27:48.610Z,91843.06
2023-04-18T17:30:15.189Z,91835.91
2023-04-18T17:32:45.744Z,91838.84
2023-04-18T17:35:14.674Z,91835.91
2023-04-18T17:37:42.718Z,91835.91
2023-04-18T17:40:11.431Z,91842.50
2023-04-18T17:42:38.109Z,91842.50
2023-04-18T17:45:08.811Z,91848.03
2023-04-18T17:47:36.508Z,91851.31
2023-04-18T17:50:07.149Z,91850.59
2023-04-18T17:52:33.685Z,91867.09
2023-04-18T17:55:01.681Z,91858.66
2023-04-18T17:57:30.527Z,91862.72
2023-04-18T17:59:57.136Z,91863.97
2023-04-18T18:02:23.817Z,91867.84
2023-04-18T18:04:51.464Z,91872.59
2023-04-18T18:07:18.425Z,91881.06
2023-04-18T18:09:45.572Z,91888.22
2023-04-18T18:12:12.277Z,91885.09
2023-04-18T18:14:40.498Z,91894.28
2023-04-18T18:17:07.431Z,91901.78
2023-04-18T18:19:36.844Z,91885.09
2023-04-18T18:22:03.388Z,91905.84
2023-04-18T18:24:30.084Z,91915.19
2023-04-18T18:26:58.074Z,91906.75
2023-04-18T18:29:24.655Z,91918.88
2023-04-18T18:31:51.240Z,91918.50
2023-04-18T18:34:17.853Z,91935.00
2023-04-18T18:36:44.341Z,91930.56
2023-04-18T18:39:11.169Z,91934.63
2023-04-18T18:41:37.808Z,91949.69
2023-04-18T18:44:04.470Z,91944.69
2023-04-18T18:46:31.204Z,91947.81
2023-04-18T18:48:57.803Z,91962.88
2023-04-18T18:51:24.386Z,91947.81
2023-04-18T18:53:50.923Z,91966.91
2023-04-18T18:56:17.418Z,91966.72
2023-04-18T18:58:43.925Z,91969.47
2023-04-18T19:01:11.541Z,91957.16
2023-04-18T19:03:38.546Z,91959.91
2023-04-18T19:06:07.028Z,91972.41
2023-04-18T19:08:33.946Z,91979.72
2023-04-18T19:11:00.585Z,91977.53
2023-04-18T19:13:27.112Z,91972.03
2023-04-18T19:15:53.823Z,91983.03
2023-04-18T19:18:20.445Z,91977.16
2023-04-18T19:20:47.112Z,91977.34
2023-04-18T19:23:13.770Z,91988.34
2023-04-18T19:25:40.312Z,91996.59
2023-04-18T19:28:06.896Z,91992.91
2023-04-18T19:30:33.434Z,91996.59
2023-04-18T19:33:00.177Z,91991.09
2023-04-18T19:35:28.006Z,91992.91
2023-04-18T19:38:01.337Z,91998.41
2023-04-18T19:40:28.929Z,91994.94
2023-04-18T19:42:55.480Z,91992.75
2023-04-18T19:45:21.996Z,91987.75
2023-04-18T19:47:48.571Z,92001.72
2023-04-18T19:50:15.201Z,92004.47
2023-04-18T19:52:41.778Z,92012.72
2023-04-18T19:55:08.781Z,92007.56
2023-04-18T19:57:39.574Z,92020.59
2023-04-18T20:00:08.890Z,92013.81
2023-04-18T20:02:35.872Z,92006.81
2023-04-18T20:05:02.771Z,92012.31
2023-04-18T20:07:29.433Z,92013.81
2023-04-18T20:09:56.357Z,92010.13
2023-04-18T20:12:23.553Z,92013.81
2023-04-18T20:14:51.353Z,92027.56
2023-04-18T20:17:17.987Z,92024.81
2023-04-18T20:19:47.098Z,92028.84
2023-04-18T20:22:14.896Z,92028.84
2023-04-18T20:24:41.464Z,92022.63
2023-04-18T20:27:07.973Z,92026.09
2023-04-18T20:29:34.462Z,92025.38
2023-04-18T20:32:00.969Z,92021.88
2023-04-18T20:34:27.456Z,92025.91
2023-04-18T20:36:53.987Z,92015.97
2023-04-18T20:39:20.565Z,92027.03
2023-04-18T20:41:51.236Z,92022.25
2023-04-18T20:44:22.221Z,92030.72
2023-04-18T20:46:48.849Z,92026.47
2023-04-18T20:49:15.748Z,92040.25
2023-04-18T20:51:42.473Z,92037.69
2023-04-18T20:54:08.945Z,92043.19
2023-04-18T20:56:38.484Z,92036.94
2023-04-18T20:59:05.116Z,92032.19
2023-04-18T21:01:31.689Z,92030.72
2023-04-18T21:03:58.442Z,92036.94
2023-04-18T21:06:25.406Z,92036.22
2023-04-18T21:08:52.406Z,92040.63
2023-04-18T21:11:18.922Z,92036.94
2023-04-18T21:13:45.399Z,92044.66
2023-04-18T21:16:11.889Z,92051.63
2023-04-18T21:18:38.400Z,92048.69
2023-04-18T21:21:05.293Z,92053.44
2023-04-18T21:23:31.761Z,92059.69
2023-04-18T21:25:58.253Z,92054.19
2023-04-18T21:28:24.740Z,92054.19
2023-04-18T21:30:51.236Z,92058.22
2023-04-18T21:33:19.239Z,92054.00
2023-04-18T21:35:45.698Z,92058.22
2023-04-18T21:38:12.267Z,92062.25
2023-04-18T21:40:38.766Z,92062.25
2023-04-18T21:43:05.304Z,92072.53
2023-04-18T21:45:31.898Z,92064.81
2023-04-18T21:47:58.494Z,92062.25
2023-04-18T21:50:25.162Z,92064.81
2023-04-18T21:52:51.686Z,92068.84
2023-04-18T21:55:18.299Z,92064.25
2023-04-18T21:57:44.796Z,92068.66
2023-04-18T22:00:12.911Z,92069.94
2023-04-18T22:02:39.531Z,92068.44
2023-04-18T22:05:07.581Z,92076.69
2023-04-18T22:07:40.790Z,92079.47
2023-04-18T22:10:17.744Z,92075.44
2023-04-18T22:12:44.407Z,92075.44
2023-04-18T22:15:11.610Z,92072.50
2023-04-18T22:17:38.170Z,92071.00
2023-04-18T22:20:05.839Z,92079.25
2023-04-18T22:22:32.490Z,92068.25
2023-04-18T22:24:59.027Z,92069.53
2023-04-18T22:27:25.569Z,92070.81
2023-04-18T22:29:52.087Z,92072.09
2023-04-18T22:32:18.628Z,92070.81
2023-04-18T22:34:45.393Z,92066.59
2023-04-18T22:37:11.928Z,92066.03
2023-04-18T22:39:38.419Z,92065.84
2023-04-18T22:42:05.074Z,92067.69
2023-04-18T22:44:31.577Z,92070.44
2023-04-18T22:46:58.121Z,92073.91
2023-04-18T22:49:24.657Z,92073.19
2023-04-18T22:51:54.369Z,92075.41
2023-04-18T22:54:21.153Z,92086.19
2023-04-18T22:56:49.550Z,92082.16
2023-04-18T22:59:16.203Z,92077.94
2023-04-18T23:01:42.977Z,92079.94
2023-04-18T23:04:09.748Z,92082.00
2023-04-18T23:06:36.954Z,92080.69
2023-04-18T23:09:06.387Z,92084.19
2023-04-18T23:11:32.877Z,92078.69
2023-04-18T23:13:59.377Z,92081.66
2023-04-18T23:16:25.945Z,92083.09
2023-04-18T23:18:52.462Z,92079.06
2023-04-18T23:21:18.994Z,92079.81
2023-04-18T23:23:45.654Z,92084.03
2023-04-18T23:26:15.578Z,92088.81
2023-04-18T23:28:45.138Z,92084.97
2023-04-18T23:31:11.875Z,92080.75
2023-04-18T23:33:38.595Z,92083.50
2023-04-18T23:36:05.375Z,92088.25
2023-04-18T23:38:32.367Z,92082.00
2023-04-18T23:40:58.877Z,92078.34
2023-04-18T23:43:25.446Z,92079.81
2023-04-18T23:45:51.941Z,92074.84
2023-04-18T23:48:18.438Z,92080.91
2023-04-18T23:50:49.229Z,92081.66
2023-04-18T23:53:19.638Z,92078.69
2023-04-18T23:55:48.877Z,92070.63
2023-04-18T23:58:16.624Z,92069.91
